Weather at Troye d'Ariège ULM

Public forecast

Using degrees Celsius for public forecast. Weather courtesy of forecast.io.

Closest aviation weather report (METAR) to Troye d'Ariège ULM

Closest report is Carcassonne Airport, 22.2 nm (41.1 km) ENE. Retrieved 2020/09/29 14:00 UTC (10 minutes ago):

LFMK 291400Z AUTO 27010KT CAVOK 20/09 Q1018 NOSIG

Closest aviation forecast (TAF) to Troye d'Ariège ULM

Closest forecast is Carcassonne Airport, 22.2 nm (41.1 km) ENE. Retrieved 2020/09/29 09:42 UTC (4 hours ago):

TAF LFMK 290800Z 2909/3009 27012KT CAVOK BECMG 3002/3004 VRB02KT